sensor_id;sensor_type;location;lat;lon;timestamp;temperature;humidity
23114;DHT22;11726;50.122;8.832;2023-04-22T00:02:11;12.60;99.90
23114;DHT22;11726;50.122;8.832;2023-04-22T00:04:42;12.60;99.90
23114;DHT22;11726;50.122;8.832;2023-04-22T00:07:13;12.60;99.90
23114;DHT22;11726;50.122;8.832;2023-04-22T00:09:41;12.60;99.90
23114;DHT22;11726;50.122;8.832;2023-04-22T00:12:08;12.50;99.90
23114;DHT22;11726;50.122;8.832;2023-04-22T00:14:37;12.50;99.90
23114;DHT22;11726;50.122;8.832;2023-04-22T00:17:04;12.50;99.90
23114;DHT22;11726;50.122;8.832;2023-04-22T00:19:33;12.50;99.90
23114;DHT22;11726;50.122;8.832;2023-04-22T00:22:00;12.50;99.90
23114;DHT22;11726;50.122;8.832;2023-04-22T00:24:27;12.50;99.90
23114;DHT22;11726;50.122;8.832;2023-04-22T00:26:54;12.40;99.90
23114;DHT22;11726;50.122;8.832;2023-04-22T00:29:21;12.40;99.90
23114;DHT22;11726;50.122;8.832;2023-04-22T00:31:48;12.50;99.90
23114;DHT22;11726;50.122;8.832;2023-04-22T00:34:14;12.40;99.90
23114;DHT22;11726;50.122;8.832;2023-04-22T00:36:43;12.50;99.90
23114;DHT22;11726;50.122;8.832;2023-04-22T00:39:10;12.50;99.90
23114;DHT22;11726;50.122;8.832;2023-04-22T00:41:40;12.50;99.90
23114;DHT22;11726;50.122;8.832;2023-04-22T00:44:11;12.50;99.90
23114;DHT22;11726;50.122;8.832;2023-04-22T00:46:38;12.40;99.90
23114;DHT22;11726;50.122;8.832;2023-04-22T00:49:06;12.40;99.90
23114;DHT22;11726;50.122;8.832;2023-04-22T00:51:33;12.40;99.90
23114;DHT22;11726;50.122;8.832;2023-04-22T00:54:00;12.40;99.90
23114;DHT22;11726;50.122;8.832;2023-04-22T00:56:27;12.40;99.90
23114;DHT22;11726;50.122;8.832;2023-04-22T00:58:55;12.40;99.90
23114;DHT22;11726;50.122;8.832;2023-04-22T01:01:22;12.30;99.90
23114;DHT22;11726;50.122;8.832;2023-04-22T01:03:51;12.30;99.90
23114;DHT22;11726;50.122;8.832;2023-04-22T01:06:19;12.30;99.90
23114;DHT22;11726;50.122;8.832;2023-04-22T01:08:46;12.30;99.90
23114;DHT22;11726;50.122;8.832;2023-04-22T01:11:13;12.30;99.90
23114;DHT22;11726;50.122;8.832;2023-04-22T01:13:40;12.20;99.90
23114;DHT22;11726;50.122;8.832;2023-04-22T01:16:07;12.30;99.90
23114;DHT22;11726;50.122;8.832;2023-04-22T01:18:35;12.30;99.90
23114;DHT22;11726;50.122;8.832;2023-04-22T01:21:02;12.40;99.90
23114;DHT22;11726;50.122;8.832;2023-04-22T01:23:29;12.40;99.90
23114;DHT22;11726;50.122;8.832;2023-04-22T01:25:56;12.30;99.90
23114;DHT22;11726;50.122;8.832;2023-04-22T01:28:23;12.00;99.90
23114;DHT22;11726;50.122;8.832;2023-04-22T01:30:50;12.10;99.90
23114;DHT22;11726;50.122;8.832;2023-04-22T01:33:17;12.10;99.90
23114;DHT22;11726;50.122;8.832;2023-04-22T01:35:44;12.10;99.90
23114;DHT22;11726;50.122;8.832;2023-04-22T01:38:12;12.00;99.90
23114;DHT22;11726;50.122;8.832;2023-04-22T01:40:39;12.00;99.90
23114;DHT22;11726;50.122;8.832;2023-04-22T01:43:06;12.00;99.90
23114;DHT22;11726;50.122;8.832;2023-04-22T01:45:33;12.10;99.90
23114;DHT22;11726;50.122;8.832;2023-04-22T01:48:00;12.00;99.90
23114;DHT22;11726;50.122;8.832;2023-04-22T01:50:27;12.10;99.90
23114;DHT22;11726;50.122;8.832;2023-04-22T01:52:54;12.00;99.90
23114;DHT22;11726;50.122;8.832;2023-04-22T01:55:21;12.00;99.90
23114;DHT22;11726;50.122;8.832;2023-04-22T01:57:48;12.00;99.90
23114;DHT22;11726;50.122;8.832;2023-04-22T02:00:15;12.00;99.90
23114;DHT22;11726;50.122;8.832;2023-04-22T02:02:42;11.90;99.90
23114;DHT22;11726;50.122;8.832;2023-04-22T02:05:09;11.90;99.90
23114;DHT22;11726;50.122;8.832;2023-04-22T02:07:36;11.90;99.90
23114;DHT22;11726;50.122;8.832;2023-04-22T02:10:06;11.90;99.90
23114;DHT22;11726;50.122;8.832;2023-04-22T02:12:33;11.80;99.90
23114;DHT22;11726;50.122;8.832;2023-04-22T02:14:59;11.80;99.90
23114;DHT22;11726;50.122;8.832;2023-04-22T02:17:26;11.80;99.90
23114;DHT22;11726;50.122;8.832;2023-04-22T02:19:53;11.90;99.90
23114;DHT22;11726;50.122;8.832;2023-04-22T02:22:21;11.90;99.90
23114;DHT22;11726;50.122;8.832;2023-04-22T02:24:49;12.00;99.90
23114;DHT22;11726;50.122;8.832;2023-04-22T02:27:15;11.90;99.90
23114;DHT22;11726;50.122;8.832;2023-04-22T02:29:42;11.90;99.90
23114;DHT22;11726;50.122;8.832;2023-04-22T02:32:08;11.80;99.90
23114;DHT22;11726;50.122;8.832;2023-04-22T02:34:35;11.80;99.90
23114;DHT22;11726;50.122;8.832;2023-04-22T02:37:02;11.70;99.90
23114;DHT22;11726;50.122;8.832;2023-04-22T02:39:28;11.70;99.90
23114;DHT22;11726;50.122;8.832;2023-04-22T02:41:55;11.60;99.90
23114;DHT22;11726;50.122;8.832;2023-04-22T02:44:22;11.60;99.90
23114;DHT22;11726;50.122;8.832;2023-04-22T02:46:48;11.50;99.90
23114;DHT22;11726;50.122;8.832;2023-04-22T02:49:15;11.60;99.90
23114;DHT22;11726;50.122;8.832;2023-04-22T02:51:42;11.70;99.90
23114;DHT22;11726;50.122;8.832;2023-04-22T02:54:09;11.60;99.90
23114;DHT22;11726;50.122;8.832;2023-04-22T02:56:35;11.60;99.90
23114;DHT22;11726;50.122;8.832;2023-04-22T02:59:02;11.60;99.90
23114;DHT22;11726;50.122;8.832;2023-04-22T03:01:29;11.70;99.90
23114;DHT22;11726;50.122;8.832;2023-04-22T03:03:55;11.70;99.90
23114;DHT22;11726;50.122;8.832;2023-04-22T03:06:22;11.70;99.90
23114;DHT22;11726;50.122;8.832;2023-04-22T03:08:49;11.70;99.90
23114;DHT22;11726;50.122;8.832;2023-04-22T03:11:16;11.70;99.90
23114;DHT22;11726;50.122;8.832;2023-04-22T03:13:42;11.70;99.90
23114;DHT22;11726;50.122;8.832;2023-04-22T03:16:09;11.60;99.90
23114;DHT22;11726;50.122;8.832;2023-04-22T03:18:36;11.40;99.90
23114;DHT22;11726;50.122;8.832;2023-04-22T03:21:03;11.40;99.90
23114;DHT22;11726;50.122;8.832;2023-04-22T03:23:30;11.50;99.90
23114;DHT22;11726;50.122;8.832;2023-04-22T03:25:56;11.40;99.90
23114;DHT22;11726;50.122;8.832;2023-04-22T03:28:23;11.40;99.90
23114;DHT22;11726;50.122;8.832;2023-04-22T03:30:50;11.30;99.90
23114;DHT22;11726;50.122;8.832;2023-04-22T03:33:17;11.30;99.90
23114;DHT22;11726;50.122;8.832;2023-04-22T03:35:47;11.30;99.90
23114;DHT22;11726;50.122;8.832;2023-04-22T03:38:14;11.30;99.90
23114;DHT22;11726;50.122;8.832;2023-04-22T03:40:42;11.30;99.90
23114;DHT22;11726;50.122;8.832;2023-04-22T03:43:08;11.30;99.90
23114;DHT22;11726;50.122;8.832;2023-04-22T03:45:35;11.40;99.90
23114;DHT22;11726;50.122;8.832;2023-04-22T03:48:02;11.30;99.90
23114;DHT22;11726;50.122;8.832;2023-04-22T03:50:29;11.30;99.90
23114;DHT22;11726;50.122;8.832;2023-04-22T03:52:56;11.30;99.90
23114;DHT22;11726;50.122;8.832;2023-04-22T03:55:22;11.40;99.90
23114;DHT22;11726;50.122;8.832;2023-04-22T03:57:49;11.30;99.90
23114;DHT22;11726;50.122;8.832;2023-04-22T04:00:16;11.30;99.90
23114;DHT22;11726;50.122;8.832;2023-04-22T04:02:42;11.30;99.90
23114;DHT22;11726;50.122;8.832;2023-04-22T04:05:09;11.40;99.90
23114;DHT22;11726;50.122;8.832;2023-04-22T04:07:37;11.30;99.90
23114;DHT22;11726;50.122;8.832;2023-04-22T04:10:04;11.30;99.90
23114;DHT22;11726;50.122;8.832;2023-04-22T04:12:30;11.30;99.90
23114;DHT22;11726;50.122;8.832;2023-04-22T04:14:57;11.30;99.90
23114;DHT22;11726;50.122;8.832;2023-04-22T04:17:24;11.10;99.90
23114;DHT22;11726;50.122;8.832;2023-04-22T04:19:52;11.00;99.90
23114;DHT22;11726;50.122;8.832;2023-04-22T04:22:19;11.00;99.90
23114;DHT22;11726;50.122;8.832;2023-04-22T04:24:46;11.10;99.90
23114;DHT22;11726;50.122;8.832;2023-04-22T04:27:13;11.20;99.90
23114;DHT22;11726;50.122;8.832;2023-04-22T04:29:39;11.10;99.90
23114;DHT22;11726;50.122;8.832;2023-04-22T04:32:07;11.20;99.90
23114;DHT22;11726;50.122;8.832;2023-04-22T04:34:35;11.10;99.90
23114;DHT22;11726;50.122;8.832;2023-04-22T04:37:05;11.10;99.90
23114;DHT22;11726;50.122;8.832;2023-04-22T04:39:31;11.10;99.90
23114;DHT22;11726;50.122;8.832;2023-04-22T04:41:58;11.10;99.90
23114;DHT22;11726;50.122;8.832;2023-04-22T04:44:25;11.20;99.90
23114;DHT22;11726;50.122;8.832;2023-04-22T04:46:52;11.10;99.90
23114;DHT22;11726;50.122;8.832;2023-04-22T04:49:20;11.00;99.90
23114;DHT22;11726;50.122;8.832;2023-04-22T04:51:47;10.90;99.90
23114;DHT22;11726;50.122;8.832;2023-04-22T04:54:13;10.90;99.90
23114;DHT22;11726;50.122;8.832;2023-04-22T04:56:40;10.90;99.90
23114;DHT22;11726;50.122;8.832;2023-04-22T04:59:07;11.00;99.90
23114;DHT22;11726;50.122;8.832;2023-04-22T05:01:34;11.10;99.90
23114;DHT22;11726;50.122;8.832;2023-04-22T05:04:01;11.10;99.90
23114;DHT22;11726;50.122;8.832;2023-04-22T05:06:27;11.10;99.90
23114;DHT22;11726;50.122;8.832;2023-04-22T05:08:54;11.00;99.90
23114;DHT22;11726;50.122;8.832;2023-04-22T05:11:21;11.00;99.90
23114;DHT22;11726;50.122;8.832;2023-04-22T05:13:47;11.00;99.90
23114;DHT22;11726;50.122;8.832;2023-04-22T05:16:14;11.00;99.90
23114;DHT22;11726;50.122;8.832;2023-04-22T05:18:41;11.00;99.90
23114;DHT22;11726;50.122;8.832;2023-04-22T05:21:07;11.00;99.90
23114;DHT22;11726;50.122;8.832;2023-04-22T05:23:34;11.00;99.90
23114;DHT22;11726;50.122;8.832;2023-04-22T05:26:01;11.00;99.90
23114;DHT22;11726;50.122;8.832;2023-04-22T05:28:28;11.00;99.90
23114;DHT22;11726;50.122;8.832;2023-04-22T05:30:54;11.00;99.90
23114;DHT22;11726;50.122;8.832;2023-04-22T05:33:21;11.10;99.90
23114;DHT22;11726;50.122;8.832;2023-04-22T05:35:48;11.10;99.90
23114;DHT22;11726;50.122;8.832;2023-04-22T05:38:14;11.10;99.90
23114;DHT22;11726;50.122;8.832;2023-04-22T05:40:41;11.10;99.90
23114;DHT22;11726;50.122;8.832;2023-04-22T05:43:08;11.10;99.90
23114;DHT22;11726;50.122;8.832;2023-04-22T05:45:36;11.10;99.90
23114;DHT22;11726;50.122;8.832;2023-04-22T05:48:02;11.20;99.90
23114;DHT22;11726;50.122;8.832;2023-04-22T05:50:29;11.20;99.90
23114;DHT22;11726;50.122;8.832;2023-04-22T05:52:56;11.30;99.90
23114;DHT22;11726;50.122;8.832;2023-04-22T05:55:23;11.20;99.90
23114;DHT22;11726;50.122;8.832;2023-04-22T05:57:49;11.20;99.90
23114;DHT22;11726;50.122;8.832;2023-04-22T06:00:17;11.30;99.90
23114;DHT22;11726;50.122;8.832;2023-04-22T06:02:43;11.30;99.90
23114;DHT22;11726;50.122;8.832;2023-04-22T06:05:10;11.40;99.90
23114;DHT22;11726;50.122;8.832;2023-04-22T06:07:37;11.40;99.90
23114;DHT22;11726;50.122;8.832;2023-04-22T06:10:05;11.20;99.90
23114;DHT22;11726;50.122;8.832;2023-04-22T06:12:35;11.30;99.90
23114;DHT22;11726;50.122;8.832;2023-04-22T06:15:01;11.50;99.90
23114;DHT22;11726;50.122;8.832;2023-04-22T06:17:29;11.70;99.90
23114;DHT22;11726;50.122;8.832;2023-04-22T06:19:55;11.70;99.90
23114;DHT22;11726;50.122;8.832;2023-04-22T06:22:22;11.70;99.90
23114;DHT22;11726;50.122;8.832;2023-04-22T06:24:48;11.90;99.90
23114;DHT22;11726;50.122;8.832;2023-04-22T06:27:15;12.00;99.90
23114;DHT22;11726;50.122;8.832;2023-04-22T06:29:42;12.10;99.90
23114;DHT22;11726;50.122;8.832;2023-04-22T06:32:08;12.10;99.90
23114;DHT22;11726;50.122;8.832;2023-04-22T06:34:35;12.10;99.90
23114;DHT22;11726;50.122;8.832;2023-04-22T06:37:04;12.20;99.90
23114;DHT22;11726;50.122;8.832;2023-04-22T06:39:30;12.30;99.90
23114;DHT22;11726;50.122;8.832;2023-04-22T06:41:57;12.30;99.90
23114;DHT22;11726;50.122;8.832;2023-04-22T06:44:24;12.40;99.90
23114;DHT22;11726;50.122;8.832;2023-04-22T06:46:51;12.50;99.90
23114;DHT22;11726;50.122;8.832;2023-04-22T06:49:20;12.50;99.90
23114;DHT22;11726;50.122;8.832;2023-04-22T06:51:46;12.60;99.90
23114;DHT22;11726;50.122;8.832;2023-04-22T06:54:13;12.70;99.90
23114;DHT22;11726;50.122;8.832;2023-04-22T06:56:39;12.90;99.90
23114;DHT22;11726;50.122;8.832;2023-04-22T06:59:06;13.00;99.90
23114;DHT22;11726;50.122;8.832;2023-04-22T07:01:33;13.20;99.90
23114;DHT22;11726;50.122;8.832;2023-04-22T07:03:59;13.20;99.90
23114;DHT22;11726;50.122;8.832;2023-04-22T07:06:27;13.30;99.90
23114;DHT22;11726;50.122;8.832;2023-04-22T07:08:53;13.50;99.90
23114;DHT22;11726;50.122;8.832;2023-04-22T07:11:20;13.50;99.90
23114;DHT22;11726;50.122;8.832;2023-04-22T07:13:47;13.60;99.90
23114;DHT22;11726;50.122;8.832;2023-04-22T07:16:14;13.70;99.90
23114;DHT22;11726;50.122;8.832;2023-04-22T07:18:41;13.80;99.90
23114;DHT22;11726;50.122;8.832;2023-04-22T07:21:07;13.80;99.90
23114;DHT22;11726;50.122;8.832;2023-04-22T07:23:37;13.90;99.90
23114;DHT22;11726;50.122;8.832;2023-04-22T07:26:03;13.80;99.90
23114;DHT22;11726;50.122;8.832;2023-04-22T07:28:30;14.00;99.90
23114;DHT22;11726;50.122;8.832;2023-04-22T07:30:57;14.10;99.90
23114;DHT22;11726;50.122;8.832;2023-04-22T07:33:23;14.20;99.90
23114;DHT22;11726;50.122;8.832;2023-04-22T07:35:50;14.40;99.90
23114;DHT22;11726;50.122;8.832;2023-04-22T07:38:17;14.50;99.90
23114;DHT22;11726;50.122;8.832;2023-04-22T07:40:47;14.60;99.90
23114;DHT22;11726;50.122;8.832;2023-04-22T07:43:14;14.80;99.90
23114;DHT22;11726;50.122;8.832;2023-04-22T07:45:44;14.80;99.90
23114;DHT22;11726;50.122;8.832;2023-04-22T07:48:11;14.90;99.90
23114;DHT22;11726;50.122;8.832;2023-04-22T07:50:38;15.00;99.90
23114;DHT22;11726;50.122;8.832;2023-04-22T07:53:05;15.40;99.90
23114;DHT22;11726;50.122;8.832;2023-04-22T07:55:32;15.60;99.90
23114;DHT22;11726;50.122;8.832;2023-04-22T07:57:59;15.70;99.90
23114;DHT22;11726;50.122;8.832;2023-04-22T08:00:26;15.80;99.90
23114;DHT22;11726;50.122;8.832;2023-04-22T08:02:53;15.90;99.90
23114;DHT22;11726;50.122;8.832;2023-04-22T08:05:20;16.00;99.90
23114;DHT22;11726;50.122;8.832;2023-04-22T08:07:46;16.10;99.90
23114;DHT22;11726;50.122;8.832;2023-04-22T08:10:13;16.40;99.90
23114;DHT22;11726;50.122;8.832;2023-04-22T08:12:40;16.50;99.90
23114;DHT22;11726;50.122;8.832;2023-04-22T08:15:07;16.60;99.90
23114;DHT22;11726;50.122;8.832;2023-04-22T08:17:33;16.70;99.90
23114;DHT22;11726;50.122;8.832;2023-04-22T08:20:00;16.70;99.90
23114;DHT22;11726;50.122;8.832;2023-04-22T08:22:27;16.80;99.90
23114;DHT22;11726;50.122;8.832;2023-04-22T08:24:53;17.00;99.90
23114;DHT22;11726;50.122;8.832;2023-04-22T08:27:21;17.00;99.90
23114;DHT22;11726;50.122;8.832;2023-04-22T08:29:47;17.20;99.90
23114;DHT22;11726;50.122;8.832;2023-04-22T08:32:14;17.20;99.90
23114;DHT22;11726;50.122;8.832;2023-04-22T08:34:41;17.40;99.90
23114;DHT22;11726;50.122;8.832;2023-04-22T08:37:09;17.50;99.90
23114;DHT22;11726;50.122;8.832;2023-04-22T08:39:36;17.50;99.90
23114;DHT22;11726;50.122;8.832;2023-04-22T08:42:04;17.60;99.90
23114;DHT22;11726;50.122;8.832;2023-04-22T08:44:30;17.70;99.90
23114;DHT22;11726;50.122;8.832;2023-04-22T08:46:57;17.70;99.90
23114;DHT22;11726;50.122;8.832;2023-04-22T08:49:29;17.60;99.90
23114;DHT22;11726;50.122;8.832;2023-04-22T08:51:56;17.70;99.90
23114;DHT22;11726;50.122;8.832;2023-04-22T08:54:23;17.80;99.90
23114;DHT22;11726;50.122;8.832;2023-04-22T08:56:50;17.80;99.90
23114;DHT22;11726;50.122;8.832;2023-04-22T08:59:17;18.00;99.90
23114;DHT22;11726;50.122;8.832;2023-04-22T09:01:49;18.20;99.90
23114;DHT22;11726;50.122;8.832;2023-04-22T09:04:17;18.30;99.90
23114;DHT22;11726;50.122;8.832;2023-04-22T09:06:44;18.40;99.90
23114;DHT22;11726;50.122;8.832;2023-04-22T09:09:11;18.50;99.90
23114;DHT22;11726;50.122;8.832;2023-04-22T09:11:38;18.50;99.90
23114;DHT22;11726;50.122;8.832;2023-04-22T09:14:04;18.60;99.90
23114;DHT22;11726;50.122;8.832;2023-04-22T09:16:40;18.90;99.90
23114;DHT22;11726;50.122;8.832;2023-04-22T09:19:13;18.90;99.90
23114;DHT22;11726;50.122;8.832;2023-04-22T09:21:40;19.00;99.90
23114;DHT22;11726;50.122;8.832;2023-04-22T09:24:09;19.00;99.90
23114;DHT22;11726;50.122;8.832;2023-04-22T09:26:41;19.20;99.90
23114;DHT22;11726;50.122;8.832;2023-04-22T09:29:13;19.30;99.90
23114;DHT22;11726;50.122;8.832;2023-04-22T09:31:40;19.40;99.90
23114;DHT22;11726;50.122;8.832;2023-04-22T09:34:07;19.50;99.90
23114;DHT22;11726;50.122;8.832;2023-04-22T09:36:34;19.40;99.90
23114;DHT22;11726;50.122;8.832;2023-04-22T09:39:05;19.50;99.90
23114;DHT22;11726;50.122;8.832;2023-04-22T09:41:37;19.50;99.90
23114;DHT22;11726;50.122;8.832;2023-04-22T09:44:08;19.60;99.90
23114;DHT22;11726;50.122;8.832;2023-04-22T09:46:35;19.60;99.90
23114;DHT22;11726;50.122;8.832;2023-04-22T09:49:02;19.70;99.90
23114;DHT22;11726;50.122;8.832;2023-04-22T09:51:29;19.90;99.90
23114;DHT22;11726;50.122;8.832;2023-04-22T09:54:06;19.90;99.90
23114;DHT22;11726;50.122;8.832;2023-04-22T09:59:05;19.90;99.90
23114;DHT22;11726;50.122;8.832;2023-04-22T10:01:39;20.10;99.90
23114;DHT22;11726;50.122;8.832;2023-04-22T10:04:07;20.10;99.90
23114;DHT22;11726;50.122;8.832;2023-04-22T10:06:41;20.10;99.90
23114;DHT22;11726;50.122;8.832;2023-04-22T10:09:08;20.10;99.90
23114;DHT22;11726;50.122;8.832;2023-04-22T10:11:35;20.10;99.90
23114;DHT22;11726;50.122;8.832;2023-04-22T10:14:02;20.30;99.90
23114;DHT22;11726;50.122;8.832;2023-04-22T10:16:31;20.50;99.90
23114;DHT22;11726;50.122;8.832;2023-04-22T10:19:02;20.50;99.40
23114;DHT22;11726;50.122;8.832;2023-04-22T10:21:30;20.30;99.80
23114;DHT22;11726;50.122;8.832;2023-04-22T10:23:58;20.50;99.90
23114;DHT22;11726;50.122;8.832;2023-04-22T10:26:49;20.50;99.90
23114;DHT22;11726;50.122;8.832;2023-04-22T10:29:20;20.70;99.90
23114;DHT22;11726;50.122;8.832;2023-04-22T10:34:47;20.60;99.10
23114;DHT22;11726;50.122;8.832;2023-04-22T10:37:18;20.80;99.90
23114;DHT22;11726;50.122;8.832;2023-04-22T10:40:06;21.00;99.90
23114;DHT22;11726;50.122;8.832;2023-04-22T10:42:34;21.10;98.10
23114;DHT22;11726;50.122;8.832;2023-04-22T10:45:03;21.30;98.10
23114;DHT22;11726;50.122;8.832;2023-04-22T10:47:33;21.40;98.60
23114;DHT22;11726;50.122;8.832;2023-04-22T10:50:12;21.40;97.90
23114;DHT22;11726;50.122;8.832;2023-04-22T10:52:41;21.30;97.50
23114;DHT22;11726;50.122;8.832;2023-04-22T10:55:08;21.30;98.20
23114;DHT22;11726;50.122;8.832;2023-04-22T10:57:39;21.40;96.80
23114;DHT22;11726;50.122;8.832;2023-04-22T11:00:26;21.80;98.70
23114;DHT22;11726;50.122;8.832;2023-04-22T11:05:31;22.00;96.90
23114;DHT22;11726;50.122;8.832;2023-04-22T11:10:44;22.20;97.70
23114;DHT22;11726;50.122;8.832;2023-04-22T11:13:14;22.50;97.30
23114;DHT22;11726;50.122;8.832;2023-04-22T11:15:44;22.60;96.70
23114;DHT22;11726;50.122;8.832;2023-04-22T11:18:22;22.80;96.00
23114;DHT22;11726;50.122;8.832;2023-04-22T11:20:53;22.80;95.30
23114;DHT22;11726;50.122;8.832;2023-04-22T11:23:22;22.90;93.60
23114;DHT22;11726;50.122;8.832;2023-04-22T11:25:55;22.90;95.00
23114;DHT22;11726;50.122;8.832;2023-04-22T11:28:26;23.10;93.90
23114;DHT22;11726;50.122;8.832;2023-04-22T11:31:04;22.80;91.80
23114;DHT22;11726;50.122;8.832;2023-04-22T11:33:32;22.70;91.90
23114;DHT22;11726;50.122;8.832;2023-04-22T11:35:59;22.90;93.40
23114;DHT22;11726;50.122;8.832;2023-04-22T11:38:26;23.00;92.20
23114;DHT22;11726;50.122;8.832;2023-04-22T11:40:54;23.10;92.40
23114;DHT22;11726;50.122;8.832;2023-04-22T11:43:22;23.20;91.30
23114;DHT22;11726;50.122;8.832;2023-04-22T11:45:49;23.50;90.10
23114;DHT22;11726;50.122;8.832;2023-04-22T11:48:16;23.60;85.60
23114;DHT22;11726;50.122;8.832;2023-04-22T11:51:09;24.00;86.30
23114;DHT22;11726;50.122;8.832;2023-04-22T12:00:49;24.20;68.30
23114;DHT22;11726;50.122;8.832;2023-04-22T12:03:58;24.20;70.20
23114;DHT22;11726;50.122;8.832;2023-04-22T12:06:29;24.20;70.00
23114;DHT22;11726;50.122;8.832;2023-04-22T12:08:56;24.50;69.90
23114;DHT22;11726;50.122;8.832;2023-04-22T12:11:27;24.60;68.30
23114;DHT22;11726;50.122;8.832;2023-04-22T12:13:53;24.80;66.90
23114;DHT22;11726;50.122;8.832;2023-04-22T12:16:20;24.80;69.50
23114;DHT22;11726;50.122;8.832;2023-04-22T12:18:48;24.80;63.70
23114;DHT22;11726;50.122;8.832;2023-04-22T12:21:20;24.90;63.80
23114;DHT22;11726;50.122;8.832;2023-04-22T12:23:52;24.90;64.20
23114;DHT22;11726;50.122;8.832;2023-04-22T12:26:21;25.00;63.70
23114;DHT22;11726;50.122;8.832;2023-04-22T12:28:52;24.90;60.40
23114;DHT22;11726;50.122;8.832;2023-04-22T12:31:19;24.80;61.50
23114;DHT22;11726;50.122;8.832;2023-04-22T12:33:48;25.10;63.20
23114;DHT22;11726;50.122;8.832;2023-04-22T12:36:15;25.20;63.40
23114;DHT22;11726;50.122;8.832;2023-04-22T12:38:43;24.90;63.00
23114;DHT22;11726;50.122;8.832;2023-04-22T12:41:09;24.60;61.70
23114;DHT22;11726;50.122;8.832;2023-04-22T12:43:36;24.70;63.20
23114;DHT22;11726;50.122;8.832;2023-04-22T12:46:04;25.00;63.50
23114;DHT22;11726;50.122;8.832;2023-04-22T12:48:31;24.90;60.50
23114;DHT22;11726;50.122;8.832;2023-04-22T12:50:58;24.80;59.50
23114;DHT22;11726;50.122;8.832;2023-04-22T12:53:28;24.60;59.90
23114;DHT22;11726;50.122;8.832;2023-04-22T12:55:55;24.30;62.10
23114;DHT22;11726;50.122;8.832;2023-04-22T12:58:22;24.00;62.50
23114;DHT22;11726;50.122;8.832;2023-04-22T13:00:49;24.40;61.40
23114;DHT22;11726;50.122;8.832;2023-04-22T13:03:15;24.50;64.30
23114;DHT22;11726;50.122;8.832;2023-04-22T13:05:43;24.10;64.00
23114;DHT22;11726;50.122;8.832;2023-04-22T13:08:10;24.10;62.40
23114;DHT22;11726;50.122;8.832;2023-04-22T13:10:37;24.20;65.80
23114;DHT22;11726;50.122;8.832;2023-04-22T13:13:04;24.20;66.00
23114;DHT22;11726;50.122;8.832;2023-04-22T13:15:45;24.00;67.20
23114;DHT22;11726;50.122;8.832;2023-04-22T13:18:12;23.90;65.60
23114;DHT22;11726;50.122;8.832;2023-04-22T13:20:39;23.80;63.20
23114;DHT22;11726;50.122;8.832;2023-04-22T13:23:07;23.50;65.50
23114;DHT22;11726;50.122;8.832;2023-04-22T13:25:35;23.40;65.00
23114;DHT22;11726;50.122;8.832;2023-04-22T13:28:02;23.20;66.10
23114;DHT22;11726;50.122;8.832;2023-04-22T13:30:28;23.10;68.80
23114;DHT22;11726;50.122;8.832;2023-04-22T13:32:55;23.10;70.60
23114;DHT22;11726;50.122;8.832;2023-04-22T13:35:22;23.10;70.80
23114;DHT22;11726;50.122;8.832;2023-04-22T13:37:49;22.90;73.80
23114;DHT22;11726;50.122;8.832;2023-04-22T13:40:16;22.80;67.70
23114;DHT22;11726;50.122;8.832;2023-04-22T13:42:43;22.70;67.60
23114;DHT22;11726;50.122;8.832;2023-04-22T13:45:10;22.60;68.30
23114;DHT22;11726;50.122;8.832;2023-04-22T13:47:37;22.50;67.90
23114;DHT22;11726;50.122;8.832;2023-04-22T13:50:03;22.40;69.70
23114;DHT22;11726;50.122;8.832;2023-04-22T13:52:31;22.30;69.20
23114;DHT22;11726;50.122;8.832;2023-04-22T13:54:59;22.20;71.00
23114;DHT22;11726;50.122;8.832;2023-04-22T13:57:25;22.10;71.20
23114;DHT22;11726;50.122;8.832;2023-04-22T13:59:52;21.90;71.10
23114;DHT22;11726;50.122;8.832;2023-04-22T14:02:19;21.80;71.60
23114;DHT22;11726;50.122;8.832;2023-04-22T14:04:46;21.80;72.40
23114;DHT22;11726;50.122;8.832;2023-04-22T14:07:12;21.70;74.40
23114;DHT22;11726;50.122;8.832;2023-04-22T14:09:39;21.60;76.20
23114;DHT22;11726;50.122;8.832;2023-04-22T14:12:07;21.50;73.70
23114;DHT22;11726;50.122;8.832;2023-04-22T14:14:34;21.50;74.50
23114;DHT22;11726;50.122;8.832;2023-04-22T14:17:00;21.40;74.70
23114;DHT22;11726;50.122;8.832;2023-04-22T14:19:27;21.30;74.60
23114;DHT22;11726;50.122;8.832;2023-04-22T14:21:56;21.30;74.10
23114;DHT22;11726;50.122;8.832;2023-04-22T14:24:22;21.30;76.70
23114;DHT22;11726;50.122;8.832;2023-04-22T14:26:51;21.10;77.80
23114;DHT22;11726;50.122;8.832;2023-04-22T14:29:18;21.00;77.60
23114;DHT22;11726;50.122;8.832;2023-04-22T14:31:45;21.00;76.10
23114;DHT22;11726;50.122;8.832;2023-04-22T14:34:12;21.00;77.10
23114;DHT22;11726;50.122;8.832;2023-04-22T14:36:39;20.90;75.60
23114;DHT22;11726;50.122;8.832;2023-04-22T14:39:05;20.90;75.40
23114;DHT22;11726;50.122;8.832;2023-04-22T14:41:32;20.80;77.30
23114;DHT22;11726;50.122;8.832;2023-04-22T14:43:59;20.80;77.50
23114;DHT22;11726;50.122;8.832;2023-04-22T14:46:25;20.80;76.30
23114;DHT22;11726;50.122;8.832;2023-04-22T14:48:52;20.80;77.20
23114;DHT22;11726;50.122;8.832;2023-04-22T14:51:19;20.60;79.30
23114;DHT22;11726;50.122;8.832;2023-04-22T14:53:46;20.60;79.40
23114;DHT22;11726;50.122;8.832;2023-04-22T14:56:12;20.60;82.60
23114;DHT22;11726;50.122;8.832;2023-04-22T14:58:39;20.40;86.20
23114;DHT22;11726;50.122;8.832;2023-04-22T15:01:06;20.10;88.80
23114;DHT22;11726;50.122;8.832;2023-04-22T15:03:33;19.90;92.50
23114;DHT22;11726;50.122;8.832;2023-04-22T15:06:01;19.70;92.70
23114;DHT22;11726;50.122;8.832;2023-04-22T15:08:28;19.50;95.30
23114;DHT22;11726;50.122;8.832;2023-04-22T15:10:55;19.40;94.20
23114;DHT22;11726;50.122;8.832;2023-04-22T15:13:21;19.30;97.60
23114;DHT22;11726;50.122;8.832;2023-04-22T15:15:48;19.40;95.40
23114;DHT22;11726;50.122;8.832;2023-04-22T15:18:15;19.30;94.90
23114;DHT22;11726;50.122;8.832;2023-04-22T15:20:42;19.30;97.00
23114;DHT22;11726;50.122;8.832;2023-04-22T15:23:08;19.40;93.90
23114;DHT22;11726;50.122;8.832;2023-04-22T15:25:35;19.50;92.10
23114;DHT22;11726;50.122;8.832;2023-04-22T15:28:02;19.60;92.40
23114;DHT22;11726;50.122;8.832;2023-04-22T15:30:29;19.70;91.50
23114;DHT22;11726;50.122;8.832;2023-04-22T15:32:56;19.80;89.10
23114;DHT22;11726;50.122;8.832;2023-04-22T15:35:23;19.90;90.30
23114;DHT22;11726;50.122;8.832;2023-04-22T15:37:49;19.80;89.40
23114;DHT22;11726;50.122;8.832;2023-04-22T15:40:16;19.80;89.40
23114;DHT22;11726;50.122;8.832;2023-04-22T15:42:43;19.80;89.30
23114;DHT22;11726;50.122;8.832;2023-04-22T15:45:11;20.00;90.10
23114;DHT22;11726;50.122;8.832;2023-04-22T15:47:38;20.10;90.10
23114;DHT22;11726;50.122;8.832;2023-04-22T15:50:07;20.10;88.40
23114;DHT22;11726;50.122;8.832;2023-04-22T15:52:36;20.00;88.70